Time;durP1;ratioP1;P1;durP2;ratioP2;P2;SDS_P1;SDS_P2;PMS_P1;PMS_P2;Temp;Humidity;BMP_temperature;BMP_pressure;BME280_temperature;BME280_humidity;BME280_pressure;Samples;Min_cycle;Max_cycle;Signal;HPM_P1;HPM_P2
2022/08/11 00:00:09;;;;;;;3.08;2.35;;;24.90;53.10;;;;;;7687101;22;80344;-70
2022/08/11 00:03:11;;;;;;;4.55;2.78;;;25.00;53.10;;;;;;7687157;22;81344;-71
2022/08/11 00:06:13;;;;;;;2.97;2.50;;;25.00;53.20;;;;;;7686650;22;80329;-70
2022/08/11 00:09:13;;;;;;;4.88;2.65;;;25.00;53.20;;;;;;7687502;22;80434;-71
2022/08/11 00:12:14;;;;;;;5.05;2.55;;;25.00;53.30;;;;;;7686863;22;81549;-71
2022/08/11 00:15:14;;;;;;;4.30;2.58;;;25.00;53.30;;;;;;7686979;22;80107;-71
2022/08/11 00:18:15;;;;;;;6.80;2.90;;;25.00;53.30;;;;;;7686774;22;81504;-70
2022/08/11 00:21:16;;;;;;;3.78;2.70;;;24.90;53.20;;;;;;7687240;22;80307;-70
2022/08/11 00:24:16;;;;;;;3.42;2.28;;;25.00;53.30;;;;;;7687504;22;80282;-70
2022/08/11 00:27:17;;;;;;;4.65;2.55;;;25.00;53.30;;;;;;7686472;22;80160;-71
2022/08/11 00:30:17;;;;;;;3.75;2.70;;;25.00;53.30;;;;;;7686738;22;80271;-71
2022/08/11 00:33:17;;;;;;;6.97;3.13;;;24.90;53.30;;;;;;7686473;22;80353;-71
2022/08/11 00:36:18;;;;;;;4.57;2.65;;;24.90;53.50;;;;;;7686469;22;80533;-70
2022/08/11 00:39:18;;;;;;;3.90;2.67;;;24.90;53.50;;;;;;7685790;22;80569;-70
2022/08/11 00:42:19;;;;;;;6.95;3.45;;;25.00;53.60;;;;;;7686223;22;81814;-70
2022/08/11 00:45:19;;;;;;;4.00;2.50;;;25.00;53.50;;;;;;7686831;22;80485;-69
2022/08/11 00:48:20;;;;;;;9.13;2.70;;;25.00;53.50;;;;;;7687075;22;80501;-70
2022/08/11 00:51:20;;;;;;;4.15;2.50;;;24.90;53.60;;;;;;7686334;22;80276;-69
2022/08/11 00:54:21;;;;;;;4.57;2.50;;;24.90;53.60;;;;;;7686379;22;80205;-68
2022/08/11 00:57:22;;;;;;;6.30;2.72;;;24.90;53.60;;;;;;7685159;22;80847;-69
2022/08/11 01:00:22;;;;;;;5.57;2.50;;;24.90;53.60;;;;;;7686669;22;80296;-68
2022/08/11 01:03:23;;;;;;;4.82;2.55;;;24.90;53.70;;;;;;7685980;22;81463;-68
2022/08/11 01:06:23;;;;;;;6.53;3.05;;;24.90;53.70;;;;;;7686016;22;81274;-68
2022/08/11 01:09:24;;;;;;;2.78;2.30;;;24.90;53.70;;;;;;7686542;22;80481;-68
2022/08/11 01:12:24;;;;;;;4.43;3.08;;;24.90;53.70;;;;;;7686170;22;79964;-68
2022/08/11 01:15:25;;;;;;;4.00;2.38;;;24.90;53.60;;;;;;7685658;22;81401;-69
2022/08/11 01:18:26;;;;;;;5.53;2.38;;;24.90;53.60;;;;;;7686516;22;80242;-69
2022/08/11 01:21:26;;;;;;;5.97;2.58;;;24.90;53.60;;;;;;7686149;22;80317;-69
2022/08/11 01:24:27;;;;;;;4.45;2.40;;;24.90;53.60;;;;;;7686111;22;80566;-68
2022/08/11 01:27:27;;;;;;;3.85;2.78;;;24.90;53.60;;;;;;7685402;22;80497;-68
2022/08/11 01:30:28;;;;;;;4.55;2.85;;;24.90;53.70;;;;;;7685685;22;81819;-68
2022/08/11 01:33:28;;;;;;;2.38;2.17;;;24.90;53.70;;;;;;7686210;22;82985;-69
2022/08/11 01:36:29;;;;;;;3.75;2.30;;;24.90;53.70;;;;;;7685986;22;81464;-68
2022/08/11 01:39:29;;;;;;;3.05;2.50;;;24.90;53.70;;;;;;7684152;22;83460;-68
2022/08/11 01:45:49;;;;;;;4.03;2.40;;;24.90;53.70;;;;;;7686434;22;80572;-69
2022/08/11 01:48:49;;;;;;;6.05;2.80;;;24.90;53.70;;;;;;7687152;22;80554;-68
2022/08/11 01:51:50;;;;;;;3.75;2.55;;;24.90;53.80;;;;;;7686449;22;80501;-68
2022/08/11 01:54:51;;;;;;;6.07;2.55;;;24.90;53.80;;;;;;7686156;22;80713;-69
2022/08/11 01:57:51;;;;;;;4.53;2.55;;;24.90;53.80;;;;;;7686464;22;81392;-68
2022/08/11 02:00:52;;;;;;;5.47;2.58;;;24.90;53.90;;;;;;7686433;22;80365;-68
2022/08/11 02:03:52;;;;;;;3.17;2.20;;;24.90;53.90;;;;;;7685984;22;80949;-68
2022/08/11 02:06:53;;;;;;;4.50;2.20;;;24.90;53.80;;;;;;7685893;22;80425;-68
2022/08/11 02:09:54;;;;;;;5.03;2.55;;;24.90;53.80;;;;;;7686147;22;80437;-68
2022/08/11 02:12:54;;;;;;;5.65;2.40;;;24.80;53.80;;;;;;7685454;22;80842;-68
2022/08/11 02:15:55;;;;;;;4.85;2.60;;;24.90;53.80;;;;;;7685473;22;80551;-68
2022/08/11 02:25:34;;;;;;;4.85;2.45;;;24.90;53.80;;;;;;7689410;22;80265;-68
2022/08/11 02:28:35;;;;;;;3.28;2.33;;;24.90;53.80;;;;;;7687718;22;80272;-67
2022/08/11 02:34:55;;;;;;;3.90;2.70;;;24.80;53.80;;;;;;7686203;22;80661;-68
2022/08/11 02:37:55;;;;;;;8.23;3.13;;;24.80;53.80;;;;;;7685800;22;80151;-66
2022/08/11 02:40:56;;;;;;;5.80;2.85;;;24.80;53.80;;;;;;7685421;22;80327;-68
2022/08/11 02:43:56;;;;;;;3.63;2.50;;;24.80;53.80;;;;;;7685313;22;80473;-68
2022/08/11 02:46:57;;;;;;;11.52;3.20;;;24.80;53.90;;;;;;7684015;22;81483;-68
2022/08/11 02:49:57;;;;;;;4.55;2.60;;;24.80;54.00;;;;;;7685612;22;80746;-67
2022/08/11 02:52:58;;;;;;;4.15;2.50;;;24.80;54.00;;;;;;7685248;22;80509;-68
2022/08/11 02:55:59;;;;;;;5.70;3.05;;;24.80;54.00;;;;;;7685802;22;80322;-68
2022/08/11 03:02:18;;;;;;;3.05;2.35;;;24.80;54.00;;;;;;7684321;22;84931;-67
2022/08/11 03:05:19;;;;;;;3.67;2.50;;;24.80;54.00;;;;;;7685145;22;80503;-67
2022/08/11 03:08:20;;;;;;;4.35;2.65;;;24.80;54.00;;;;;;7684747;22;82017;-67
2022/08/11 03:18:09;;;;;;;4.68;2.92;;;24.80;54.00;;;;;;7628077;22;81382;-66
2022/08/11 03:21:10;;;;;;;3.80;2.55;;;24.80;54.00;;;;;;7685494;22;80249;-67
2022/08/11 03:24:10;;;;;;;6.95;3.30;;;24.80;54.10;;;;;;7685515;22;80038;-66
2022/08/11 03:27:11;;;;;;;10.77;3.33;;;24.80;54.10;;;;;;7685554;22;80492;-66
2022/08/11 03:30:11;;;;;;;4.47;2.97;;;24.80;54.10;;;;;;7687031;22;80330;-66
2022/08/11 03:36:31;;;;;;;6.90;2.72;;;24.80;54.10;;;;;;7687031;22;81025;-67
2022/08/11 03:39:31;;;;;;;6.03;3.30;;;24.80;54.00;;;;;;7687011;22;80268;-67
2022/08/11 03:42:32;;;;;;;6.68;3.50;;;24.80;54.10;;;;;;7686401;22;80301;-66
2022/08/11 03:45:32;;;;;;;3.65;2.80;;;24.80;54.10;;;;;;7687158;22;80566;-69
2022/08/11 03:48:33;;;;;;;6.90;3.65;;;24.70;54.00;;;;;;7687212;22;80358;-68
2022/08/11 03:51:33;;;;;;;6.22;3.33;;;24.70;54.10;;;;;;7687787;22;80525;-68
2022/08/11 03:54:34;;;;;;;7.10;3.33;;;24.70;54.10;;;;;;7686740;22;80356;-68
2022/08/11 03:57:35;;;;;;;5.30;3.33;;;24.80;54.20;;;;;;7686857;22;80174;-68
2022/08/11 04:00:36;;;;;;;4.40;3.08;;;24.70;54.10;;;;;;7686735;22;81405;-67
2022/08/11 04:03:36;;;;;;;4.78;2.95;;;24.80;54.20;;;;;;7685173;22;80444;-67
2022/08/11 04:06:37;;;;;;;7.85;3.20;;;24.80;54.30;;;;;;7686170;22;80059;-67
2022/08/11 04:09:37;;;;;;;5.65;3.50;;;24.80;54.30;;;;;;7686070;22;80382;-66
2022/08/11 04:12:38;;;;;;;12.07;3.92;;;24.80;54.60;;;;;;7686188;22;81530;-67
2022/08/11 04:18:58;;;;;;;5.03;2.92;;;24.80;54.60;;;;;;7685620;22;80849;-66
2022/08/11 04:21:58;;;;;;;7.53;2.92;;;24.90;54.70;;;;;;7685904;22;80407;-66
2022/08/11 04:24:59;;;;;;;5.50;3.13;;;24.90;54.60;;;;;;7685086;22;81249;-66
2022/08/11 04:27:59;;;;;;;5.90;3.30;;;24.90;54.60;;;;;;7684322;22;81481;-66
2022/08/11 04:31:00;;;;;;;7.15;3.28;;;24.90;54.40;;;;;;7684864;22;80301;-70
2022/08/11 04:34:00;;;;;;;9.70;3.40;;;24.90;54.60;;;;;;7684560;22;80886;-71
2022/08/11 04:40:20;;;;;;;11.35;3.13;;;24.90;54.80;;;;;;7685532;22;80543;-66
2022/08/11 04:43:20;;;;;;;6.10;3.55;;;24.90;54.40;;;;;;7686356;22;80245;-68
2022/08/11 04:46:21;;;;;;;6.72;3.45;;;25.00;54.50;;;;;;7686562;22;80376;-65
2022/08/11 05:02:39;;;;;;;6.50;3.38;;;25.00;54.00;;;;;;7685096;22;80305;-68
2022/08/11 05:05:39;;;;;;;12.23;3.10;;;25.10;54.00;;;;;;7684124;22;81493;-67
2022/08/11 05:08:40;;;;;;;20.08;4.28;;;25.10;54.00;;;;;;7685637;22;80438;-67
2022/08/11 05:11:40;;;;;;;10.10;3.33;;;25.10;54.00;;;;;;7685965;22;80388;-67
2022/08/11 05:34:50;;;;;;;15.25;3.67;;;25.10;54.30;;;;;;7686407;22;80467;-67
2022/08/11 05:57:46;;;;;;;12.00;3.60;;;25.20;54.00;;;;;;7686616;22;81499;-66
2022/08/11 06:00:48;;;;;;;8.07;3.70;;;25.20;53.90;;;;;;7686249;22;80328;-66
2022/08/11 06:07:08;;;;;;;8.02;3.88;;;25.20;53.70;;;;;;7686377;22;80160;-67
2022/08/11 06:10:08;;;;;;;8.23;3.78;;;25.10;53.80;;;;;;7684141;22;84030;-65
2022/08/11 06:13:09;;;;;;;8.88;3.50;;;25.10;53.90;;;;;;7685497;22;80349;-66
2022/08/11 06:16:10;;;;;;;11.85;3.65;;;25.10;53.80;;;;;;7685941;22;81175;-67
2022/08/11 06:19:10;;;;;;;9.70;3.90;;;25.10;53.80;;;;;;7685890;22;80303;-67
2022/08/11 06:22:11;;;;;;;9.65;3.28;;;25.00;53.80;;;;;;7685812;22;80150;-66
2022/08/11 06:25:11;;;;;;;6.00;3.67;;;25.00;54.00;;;;;;7685913;22;80572;-67
2022/08/11 06:28:12;;;;;;;8.45;3.20;;;25.00;54.10;;;;;;7685737;22;80265;-67
2022/08/11 06:31:12;;;;;;;5.22;2.42;;;25.10;54.20;;;;;;7685695;22;81588;-67
2022/08/11 06:34:13;;;;;;;5.05;3.38;;;25.20;54.10;;;;;;7685504;22;80376;-67
2022/08/11 06:37:13;;;;;;;9.90;2.92;;;25.10;54.10;;;;;;7685586;22;81320;-66
2022/08/11 06:40:14;;;;;;;8.48;2.65;;;24.90;54.40;;;;;;7684803;22;80425;-68
2022/08/11 06:43:15;;;;;;;6.55;3.53;;;24.80;54.50;;;;;;7684793;22;80563;-67
2022/08/11 06:46:15;;;;;;;7.80;2.75;;;24.90;54.60;;;;;;7684918;22;80433;-68
2022/08/11 06:52:35;;;;;;;5.88;2.85;;;25.00;54.40;;;;;;7684581;22;81776;-67
2022/08/11 07:02:14;;;;;;;10.32;3.35;;;25.10;53.30;;;;;;7684328;22;85056;-67
2022/08/11 07:05:15;;;;;;;6.85;3.38;;;25.10;53.30;;;;;;7686818;22;80812;-66
2022/08/11 07:31:30;;;;;;;8.82;2.40;;;25.20;52.90;;;;;;7686667;22;80448;-68
2022/08/11 07:34:31;;;;;;;15.48;3.10;;;25.10;52.90;;;;;;7686586;22;80202;-67
2022/08/11 07:37:32;;;;;;;5.13;2.75;;;25.10;52.60;;;;;;7686828;22;80567;-67
2022/08/11 07:40:32;;;;;;;4.32;2.20;;;25.20;52.30;;;;;;7686623;22;80495;-68
2022/08/11 07:43:33;;;;;;;9.23;3.03;;;25.10;52.20;;;;;;7687663;22;80692;-66
2022/08/11 07:53:12;;;;;;;42.60;16.52;;;25.30;52.50;;;;;;7682707;22;82930;-67
2022/08/11 07:56:14;;;;;;;47.40;19.98;;;25.30;52.20;;;;;;7682853;22;83840;-67
2022/08/11 08:19:11;;;;;;;33.88;9.52;;;25.40;52.40;;;;;;7683590;22;83101;-68
2022/08/11 08:22:11;;;;;;;32.15;11.05;;;25.30;52.30;;;;;;7687600;22;82697;-67
2022/08/11 08:25:12;;;;;;;31.83;11.73;;;25.30;52.50;;;;;;7682789;22;83244;-67
2022/08/11 08:28:12;;;;;;;23.23;11.05;;;25.40;53.70;;;;;;7683458;22;83054;-66
2022/08/11 08:31:13;;;;;;;11.45;5.88;;;25.40;54.00;;;;;;7682009;22;83780;-66
2022/08/11 08:34:14;;;;;;;23.38;12.57;;;25.40;53.70;;;;;;7686939;22;86899;-66
2022/08/11 08:37:15;;;;;;;16.95;8.40;;;25.30;54.40;;;;;;7681738;22;83013;-66
2022/08/11 08:40:15;;;;;;;18.27;10.50;;;25.30;54.40;;;;;;7685413;22;84168;-67
2022/08/11 08:43:16;;;;;;;20.38;9.95;;;25.40;54.60;;;;;;7683122;22;82680;-66
2022/08/11 08:46:16;;;;;;;28.33;15.02;;;25.40;54.70;;;;;;7687193;22;83390;-66
2022/08/11 08:49:17;;;;;;;15.30;9.45;;;25.40;54.20;;;;;;7683163;22;82648;-66
2022/08/11 08:52:17;;;;;;;10.00;5.90;;;25.30;53.30;;;;;;7684791;22;83301;-66
2022/08/11 08:55:18;;;;;;;7.32;3.80;;;25.30;52.60;;;;;;7685412;22;81220;-65
2022/08/11 08:58:18;;;;;;;5.38;2.92;;;25.30;52.50;;;;;;7685465;22;80739;-66
2022/08/11 09:01:20;;;;;;;6.45;4.03;;;25.30;52.20;;;;;;7685898;22;83355;-66
2022/08/11 09:04:21;;;;;;;3.63;2.75;;;25.30;52.40;;;;;;7685316;22;80536;-67
2022/08/11 09:07:22;;;;;;;4.57;3.08;;;25.40;52.60;;;;;;7687031;22;80482;-66
2022/08/11 09:10:22;;;;;;;3.35;2.50;;;25.50;52.80;;;;;;7687252;22;80238;-66
2022/08/11 09:13:22;;;;;;;6.57;1.90;;;25.50;52.70;;;;;;7686826;22;81599;-66
2022/08/11 09:16:23;;;;;;;3.70;2.47;;;25.50;52.10;;;;;;7685348;22;80362;-66
2022/08/11 09:19:23;;;;;;;5.40;2.40;;;25.60;52.70;;;;;;7687704;22;81717;-67
2022/08/11 09:29:03;;;;;;;7.00;2.45;;;25.60;52.00;;;;;;7687369;22;80575;-67
2022/08/11 09:32:05;;;;;;;6.97;2.20;;;25.70;52.20;;;;;;7686379;22;87223;-66
2022/08/11 09:35:06;;;;;;;3.15;1.77;;;25.70;51.10;;;;;;7687402;22;80383;-66
2022/08/11 09:41:26;;;;;;;2.28;1.70;;;25.70;51.30;;;;;;7687416;22;85205;-72
2022/08/11 09:47:45;;;;;;;2.30;1.65;;;25.70;50.50;;;;;;7687018;22;80743;-67
2022/08/11 09:50:46;;;;;;;2.72;1.92;;;25.70;50.00;;;;;;7686354;22;80338;-66
2022/08/11 09:53:46;;;;;;;30.00;2.17;;;25.80;50.10;;;;;;7684280;22;80524;-68
2022/08/11 10:00:06;;;;;;;2.40;1.67;;;25.80;50.40;;;;;;7686973;22;80592;-67
2022/08/11 10:03:07;;;;;;;7.10;1.88;;;25.90;50.30;;;;;;7686775;22;80282;-67
2022/08/11 10:09:26;;;;;;;1.88;1.45;;;25.80;49.90;;;;;;7687079;22;81494;-68
2022/08/11 10:12:28;;;;;;;1.80;1.60;;;25.90;50.00;;;;;;7686605;22;80112;-66
2022/08/11 10:15:36;;;;;;;5.43;2.03;;;25.90;50.20;;;;;;7686736;22;84814;-66
2022/08/11 10:18:41;;;;;;;3.35;1.63;;;26.00;50.00;;;;;;7686099;22;80782;-68
2022/08/11 10:21:41;;;;;;;2.55;1.70;;;26.00;49.90;;;;;;7684544;22;80499;-70
2022/08/11 10:28:01;;;;;;;2.25;1.42;;;25.90;49.40;;;;;;7686808;22;80306;-71
2022/08/11 10:34:22;;;;;;;2.38;1.48;;;25.90;48.70;;;;;;7686792;22;80260;-72
2022/08/11 10:37:23;;;;;;;3.25;1.90;;;25.90;48.70;;;;;;7687961;22;80999;-71
2022/08/11 10:40:23;;;;;;;2.58;1.88;;;25.80;47.90;;;;;;7688616;22;87357;-71
2022/08/11 10:43:24;;;;;;;5.18;1.50;;;25.80;48.30;;;;;;7688828;22;80363;-71
2022/08/11 10:51:11;;;;;;;3.58;1.58;;;25.70;48.00;;;;;;7688614;22;80641;-73
2022/08/11 10:59:43;;;;;;;3.35;1.60;;;25.70;47.70;;;;;;7688429;22;80889;-70
2022/08/11 11:02:43;;;;;;;2.85;1.70;;;25.70;47.70;;;;;;7688584;22;80616;-71
2022/08/11 11:05:43;;;;;;;1.33;1.23;;;25.70;47.10;;;;;;7688799;22;80464;-70
2022/08/11 11:08:54;;;;;;;2.20;1.40;;;25.50;46.80;;;;;;7685996;22;80303;-70
2022/08/11 11:18:34;;;;;;;7.55;1.75;;;25.50;47.70;;;;;;7688089;22;80369;-73
2022/08/11 11:21:35;;;;;;;13.57;2.60;;;25.40;49.00;;;;;;7688372;22;80324;-71
2022/08/11 11:24:38;;;;;;;7.32;1.52;;;25.40;49.50;;;;;;7687754;22;80285;-71
2022/08/11 11:27:39;;;;;;;5.90;1.75;;;25.40;50.20;;;;;;7686985;22;80271;-72
2022/08/11 11:30:39;;;;;;;3.70;2.28;;;25.40;50.30;;;;;;7684567;22;80582;-73
2022/08/11 11:33:40;;;;;;;3.10;1.52;;;25.40;50.00;;;;;;7686865;22;79934;-75
2022/08/11 11:36:40;;;;;;;1.30;1.20;;;25.40;49.70;;;;;;7688057;22;80384;-73
2022/08/11 11:39:40;;;;;;;3.40;1.60;;;25.50;49.10;;;;;;7686418;22;80213;-74
2022/08/11 11:42:41;;;;;;;1.38;1.25;;;25.50;48.50;;;;;;7688599;22;81039;-74
2022/08/11 11:45:41;;;;;;;1.33;1.23;;;25.50;48.50;;;;;;7688583;22;80161;-74
2022/08/11 11:48:42;;;;;;;1.60;1.40;;;25.50;48.60;;;;;;7687747;22;80273;-73
2022/08/11 11:51:42;;;;;;;1.95;1.30;;;25.50;48.70;;;;;;7688557;22;80217;-72
2022/08/11 11:54:43;;;;;;;4.15;1.35;;;25.50;48.60;;;;;;7687624;22;80593;-72
2022/08/11 12:01:15;;;;;;;17.17;4.20;;;25.60;49.00;;;;;;7687261;22;81634;-71
2022/08/11 12:04:15;;;;;;;18.92;3.92;;;25.70;48.70;;;;;;7688134;22;80592;-69
2022/08/11 12:10:35;;;;;;;15.88;2.80;;;25.80;48.90;;;;;;7687478;22;80536;-68
2022/08/11 12:13:42;;;;;;;14.15;3.80;;;25.90;48.90;;;;;;7687949;22;81897;-70
2022/08/11 12:16:42;;;;;;;29.98;5.85;;;26.00;49.80;;;;;;7686598;22;80358;-71
2022/08/11 12:19:43;;;;;;;12.50;2.83;;;26.10;50.00;;;;;;7687978;22;80595;-69
2022/08/11 12:29:26;;;;;;;7.40;2.90;;;26.10;49.50;;;;;;7687277;22;84757;-71
2022/08/11 12:32:26;;;;;;;9.05;2.47;;;26.10;48.60;;;;;;7687394;22;80934;-72
2022/08/11 12:35:27;;;;;;;2.47;1.52;;;26.10;48.90;;;;;;7687458;22;80212;-71
2022/08/11 12:38:27;;;;;;;2.65;2.00;;;26.20;48.10;;;;;;7686932;22;80640;-70
2022/08/11 12:54:45;;;;;;;15.98;2.20;;;26.00;48.50;;;;;;7686875;22;80277;-70
2022/08/11 13:07:44;;;;;;;3.97;1.65;;;25.50;51.70;;;;;;7686996;22;80229;-69
2022/08/11 13:14:03;;;;;;;4.18;2.05;;;25.50;52.00;;;;;;7686077;22;80593;-69
2022/08/11 13:17:23;;;;;;;3.50;1.42;;;25.50;52.80;;;;;;7687253;22;80602;-70
2022/08/11 13:20:23;;;;;;;5.35;1.90;;;25.50;53.30;;;;;;7686087;22;86391;-71
2022/08/11 13:23:24;;;;;;;3.90;1.30;;;25.50;53.40;;;;;;7687393;22;80119;-72
2022/08/11 13:26:24;;;;;;;10.55;1.58;;;25.50;53.50;;;;;;7686874;22;81882;-72
2022/08/11 13:29:25;;;;;;;3.55;1.92;;;25.60;54.30;;;;;;7686701;22;80305;-72
2022/08/11 13:32:27;;;;;;;2.92;1.40;;;25.60;54.70;;;;;;7686710;22;80772;-72
2022/08/11 13:35:27;;;;;;;3.20;1.33;;;25.60;54.80;;;;;;7686279;22;80261;-71
2022/08/11 13:38:27;;;;;;;4.55;1.58;;;25.60;55.10;;;;;;7686363;22;81254;-71
2022/08/11 13:41:38;;;;;;;3.63;1.88;;;25.60;55.70;;;;;;7686808;22;80519;-71
2022/08/11 13:44:38;;;;;;;2.85;1.55;;;25.60;55.70;;;;;;7684625;22;83424;-71
2022/08/11 13:47:39;;;;;;;3.45;1.50;;;25.60;55.70;;;;;;7686696;22;80752;-70
2022/08/11 13:53:58;;;;;;;3.03;2.00;;;25.60;56.10;;;;;;7687338;22;80766;-78
2022/08/11 13:56:59;;;;;;;10.02;2.70;;;25.60;56.10;;;;;;7687738;22;80229;-72
2022/08/11 14:00:08;;;;;;;3.38;1.77;;;25.60;56.30;;;;;;7686732;22;80428;-74
2022/08/11 14:03:12;;;;;;;4.65;1.95;;;25.60;56.80;;;;;;7686770;22;80319;-73
2022/08/11 14:06:12;;;;;;;2.33;1.90;;;25.60;56.80;;;;;;7687430;22;80253;-75
2022/08/11 14:09:13;;;;;;;4.15;1.77;;;25.70;56.40;;;;;;7687594;22;80805;-80
2022/08/11 14:15:33;;;;;;;4.97;1.45;;;25.70;56.30;;;;;;7687076;22;81546;-70
2022/08/11 14:18:34;;;;;;;2.75;1.95;;;25.70;56.70;;;;;;7686923;22;80671;-73
2022/08/11 14:24:54;;;;;;;14.23;6.57;;;25.80;56.60;;;;;;7687279;22;81335;-71
2022/08/11 14:27:55;;;;;;;173.00;78.82;;;25.80;56.60;;;;;;7686828;22;80306;-70
2022/08/11 14:30:55;;;;;;;240.55;105.32;;;25.90;56.80;;;;;;7682723;22;82969;-70
2022/08/11 14:33:56;;;;;;;291.13;128.50;;;25.90;58.10;;;;;;7677393;22;85515;-73
2022/08/11 14:36:56;;;;;;;200.25;91.82;;;25.90;57.30;;;;;;7679268;22;85474;-73
2022/08/11 14:39:57;;;;;;;196.18;83.50;;;25.90;56.80;;;;;;7682730;22;85306;-72
2022/08/11 14:49:36;;;;;;;144.50;64.70;;;25.90;57.00;;;;;;7683012;22;83033;-72
2022/08/11 14:52:37;;;;;;;133.35;60.08;;;25.90;57.00;;;;;;7682877;22;83063;-73
2022/08/11 14:58:57;;;;;;;102.53;47.42;;;25.90;57.10;;;;;;7682441;22;83285;-73
2022/08/11 15:05:16;;;;;;;101.47;40.28;;;25.90;57.10;;;;;;7681633;22;87275;-72
2022/08/11 15:08:17;;;;;;;82.25;35.10;;;25.90;57.30;;;;;;7682663;22;82822;-70
2022/08/11 15:17:56;;;;;;;62.78;27.67;;;25.80;57.40;;;;;;7682365;22;83000;-69
2022/08/11 15:24:20;;;;;;;55.85;25.55;;;25.80;57.40;;;;;;7682184;22;82704;-69
2022/08/11 15:37:29;;;;;;;38.35;17.13;;;25.80;57.90;;;;;;7683895;22;83104;-72
2022/08/11 15:47:08;;;;;;;30.92;13.95;;;25.70;58.00;;;;;;7683467;22;83350;-68
2022/08/11 15:50:09;;;;;;;31.00;13.43;;;25.80;58.50;;;;;;7684091;22;83001;-67
2022/08/11 15:53:09;;;;;;;27.70;12.55;;;25.70;58.30;;;;;;7683535;22;82765;-67
2022/08/11 15:56:10;;;;;;;28.10;12.27;;;25.70;58.60;;;;;;7683489;22;83087;-68
2022/08/11 16:05:50;;;;;;;14.63;7.90;;;25.70;58.90;;;;;;7665246;22;84127;-67
2022/08/11 16:08:51;;;;;;;19.23;5.82;;;25.70;58.50;;;;;;7687476;22;84214;-67
2022/08/11 16:11:51;;;;;;;13.25;5.30;;;25.80;58.50;;;;;;7687354;22;80433;-66
2022/08/11 16:18:11;;;;;;;6.85;3.20;;;25.80;58.10;;;;;;7687734;22;80729;-67
2022/08/11 16:21:12;;;;;;;8.35;2.63;;;25.80;57.80;;;;;;7687445;22;80274;-70
2022/08/11 16:24:13;;;;;;;2.47;1.67;;;25.80;57.60;;;;;;7687603;22;80458;-68
2022/08/11 16:27:14;;;;;;;4.38;2.00;;;25.70;57.20;;;;;;7688247;22;79993;-72
2022/08/11 16:30:14;;;;;;;5.47;1.95;;;25.70;57.50;;;;;;7688295;22;80217;-71
2022/08/11 16:33:15;;;;;;;4.32;2.35;;;25.70;57.80;;;;;;7687849;22;81342;-71
2022/08/11 16:39:35;;;;;;;3.42;1.70;;;25.50;56.40;;;;;;7687209;22;81366;-74
2022/08/11 16:49:13;;;;;;;5.75;1.98;;;25.40;54.00;;;;;;7688259;22;80389;-73
2022/08/11 16:52:14;;;;;;;3.92;1.65;;;25.30;55.00;;;;;;7688223;22;80556;-73
2022/08/11 16:55:14;;;;;;;3.53;1.67;;;25.20;55.90;;;;;;7686349;22;81693;-72
2022/08/11 17:01:34;;;;;;;4.28;1.65;;;25.30;56.60;;;;;;7688019;22;80526;-71
2022/08/11 17:14:33;;;;;;;2.40;1.45;;;25.20;57.60;;;;;;7686124;22;85061;-75
2022/08/11 17:17:33;;;;;;;6.53;1.80;;;25.20;57.10;;;;;;7685808;22;80269;-72
2022/08/11 17:20:34;;;;;;;5.68;1.80;;;25.20;57.70;;;;;;7686624;22;80288;-72
2022/08/11 17:23:46;;;;;;;8.45;1.85;;;25.30;57.30;;;;;;7687573;22;80313;-72
2022/08/11 17:26:55;;;;;;;4.00;1.67;;;25.30;56.70;;;;;;7686885;22;80573;-79
2022/08/11 17:29:56;;;;;;;2.28;1.67;;;25.30;57.00;;;;;;7687162;22;80411;-78
2022/08/11 17:36:15;;;;;;;10.10;2.00;;;25.30;57.00;;;;;;7687645;22;79910;-70
2022/08/11 17:39:16;;;;;;;10.00;2.22;;;25.20;57.80;;;;;;7687592;22;80349;-72
2022/08/11 17:48:55;;;;;;;10.38;1.90;;;25.30;57.80;;;;;;7686594;22;80241;-71
2022/08/11 18:01:54;;;;;;;3.55;1.67;;;25.20;57.80;;;;;;7688148;22;80350;-69
2022/08/11 18:04:55;;;;;;;1.75;1.48;;;25.20;57.90;;;;;;7686535;22;80372;-72
